sensor_id;sensor_type;location;lat;lon;timestamp;temperature;humidity
8105;DHT22;4095;48.942;9.104;2023-04-06T00:01:25;4.50;91.30
8105;DHT22;4095;48.942;9.104;2023-04-06T00:03:51;4.50;91.10
8105;DHT22;4095;48.942;9.104;2023-04-06T00:06:16;4.50;91.30
8105;DHT22;4095;48.942;9.104;2023-04-06T00:08:42;4.50;91.20
8105;DHT22;4095;48.942;9.104;2023-04-06T00:11:08;4.50;91.40
8105;DHT22;4095;48.942;9.104;2023-04-06T00:13:34;4.50;91.40
8105;DHT22;4095;48.942;9.104;2023-04-06T00:16:00;4.40;91.00
8105;DHT22;4095;48.942;9.104;2023-04-06T00:18:26;4.40;91.30
8105;DHT22;4095;48.942;9.104;2023-04-06T00:20:51;4.40;91.60
8105;DHT22;4095;48.942;9.104;2023-04-06T00:23:18;4.40;91.60
8105;DHT22;4095;48.942;9.104;2023-04-06T00:25:44;4.40;91.60
8105;DHT22;4095;48.942;9.104;2023-04-06T00:28:09;4.40;91.40
8105;DHT22;4095;48.942;9.104;2023-04-06T00:30:35;4.30;91.40
8105;DHT22;4095;48.942;9.104;2023-04-06T00:33:00;4.30;91.50
8105;DHT22;4095;48.942;9.104;2023-04-06T00:35:26;4.30;91.50
8105;DHT22;4095;48.942;9.104;2023-04-06T00:37:52;4.30;91.80
8105;DHT22;4095;48.942;9.104;2023-04-06T00:40:17;4.30;92.00
8105;DHT22;4095;48.942;9.104;2023-04-06T00:42:43;4.30;92.20
8105;DHT22;4095;48.942;9.104;2023-04-06T00:45:09;4.20;91.80
8105;DHT22;4095;48.942;9.104;2023-04-06T00:47:35;4.10;91.90
8105;DHT22;4095;48.942;9.104;2023-04-06T00:50:01;4.10;92.00
8105;DHT22;4095;48.942;9.104;2023-04-06T00:52:27;4.00;91.90
8105;DHT22;4095;48.942;9.104;2023-04-06T00:54:53;4.10;91.70
8105;DHT22;4095;48.942;9.104;2023-04-06T00:57:19;4.00;91.70
8105;DHT22;4095;48.942;9.104;2023-04-06T00:59:45;4.00;91.90
8105;DHT22;4095;48.942;9.104;2023-04-06T01:02:11;4.00;91.80
8105;DHT22;4095;48.942;9.104;2023-04-06T01:04:37;4.00;92.10
8105;DHT22;4095;48.942;9.104;2023-04-06T01:07:02;4.00;91.90
8105;DHT22;4095;48.942;9.104;2023-04-06T01:09:28;4.00;91.60
8105;DHT22;4095;48.942;9.104;2023-04-06T01:11:58;4.00;91.80
8105;DHT22;4095;48.942;9.104;2023-04-06T01:14:24;3.90;91.70
8105;DHT22;4095;48.942;9.104;2023-04-06T01:16:51;3.90;91.80
8105;DHT22;4095;48.942;9.104;2023-04-06T01:19:17;3.90;92.00
8105;DHT22;4095;48.942;9.104;2023-04-06T01:21:42;3.90;91.90
8105;DHT22;4095;48.942;9.104;2023-04-06T01:24:08;3.90;91.70
8105;DHT22;4095;48.942;9.104;2023-04-06T01:26:35;3.90;91.90
8105;DHT22;4095;48.942;9.104;2023-04-06T01:29:01;3.80;92.00
8105;DHT22;4095;48.942;9.104;2023-04-06T01:31:28;3.70;92.40
8105;DHT22;4095;48.942;9.104;2023-04-06T01:33:54;3.70;92.60
8105;DHT22;4095;48.942;9.104;2023-04-06T01:36:20;3.70;92.40
8105;DHT22;4095;48.942;9.104;2023-04-06T01:38:46;3.70;92.20
8105;DHT22;4095;48.942;9.104;2023-04-06T01:41:11;3.70;92.40
8105;DHT22;4095;48.942;9.104;2023-04-06T01:43:37;3.70;92.30
8105;DHT22;4095;48.942;9.104;2023-04-06T01:46:03;3.70;92.40
8105;DHT22;4095;48.942;9.104;2023-04-06T01:48:29;3.70;92.20
8105;DHT22;4095;48.942;9.104;2023-04-06T01:50:54;3.70;92.40
8105;DHT22;4095;48.942;9.104;2023-04-06T01:53:21;3.60;92.50
8105;DHT22;4095;48.942;9.104;2023-04-06T01:55:46;3.60;92.40
8105;DHT22;4095;48.942;9.104;2023-04-06T01:58:12;3.60;92.40
8105;DHT22;4095;48.942;9.104;2023-04-06T02:00:38;3.50;92.70
8105;DHT22;4095;48.942;9.104;2023-04-06T02:03:04;3.50;92.70
8105;DHT22;4095;48.942;9.104;2023-04-06T02:05:31;3.60;92.80
8105;DHT22;4095;48.942;9.104;2023-04-06T02:07:56;3.50;92.70
8105;DHT22;4095;48.942;9.104;2023-04-06T02:10:22;3.60;92.70
8105;DHT22;4095;48.942;9.104;2023-04-06T02:12:49;3.60;92.60
8105;DHT22;4095;48.942;9.104;2023-04-06T02:15:15;3.60;92.60
8105;DHT22;4095;48.942;9.104;2023-04-06T02:17:41;3.60;92.60
8105;DHT22;4095;48.942;9.104;2023-04-06T02:20:07;3.60;92.70
8105;DHT22;4095;48.942;9.104;2023-04-06T02:22:34;3.60;92.80
8105;DHT22;4095;48.942;9.104;2023-04-06T02:24:59;3.70;92.80
8105;DHT22;4095;48.942;9.104;2023-04-06T02:27:25;3.70;92.70
8105;DHT22;4095;48.942;9.104;2023-04-06T02:29:51;3.70;92.80
8105;DHT22;4095;48.942;9.104;2023-04-06T02:32:16;3.70;92.70
8105;DHT22;4095;48.942;9.104;2023-04-06T02:34:42;3.80;92.90
8105;DHT22;4095;48.942;9.104;2023-04-06T02:37:08;3.80;93.00
8105;DHT22;4095;48.942;9.104;2023-04-06T02:39:33;3.80;92.80
8105;DHT22;4095;48.942;9.104;2023-04-06T02:41:59;3.80;92.40
8105;DHT22;4095;48.942;9.104;2023-04-06T02:44:25;3.80;92.70
8105;DHT22;4095;48.942;9.104;2023-04-06T02:46:50;3.80;92.90
8105;DHT22;4095;48.942;9.104;2023-04-06T02:49:16;3.80;93.00
8105;DHT22;4095;48.942;9.104;2023-04-06T02:51:41;3.80;92.90
8105;DHT22;4095;48.942;9.104;2023-04-06T02:54:07;3.90;92.90
8105;DHT22;4095;48.942;9.104;2023-04-06T02:56:33;3.80;92.90
8105;DHT22;4095;48.942;9.104;2023-04-06T02:58:58;3.80;92.80
8105;DHT22;4095;48.942;9.104;2023-04-06T03:01:26;3.80;93.00
8105;DHT22;4095;48.942;9.104;2023-04-06T03:03:52;3.70;93.00
8105;DHT22;4095;48.942;9.104;2023-04-06T03:06:17;3.80;93.00
8105;DHT22;4095;48.942;9.104;2023-04-06T03:08:43;3.80;93.00
8105;DHT22;4095;48.942;9.104;2023-04-06T03:11:08;3.80;93.10
8105;DHT22;4095;48.942;9.104;2023-04-06T03:13:34;3.80;93.00
8105;DHT22;4095;48.942;9.104;2023-04-06T03:15:59;3.80;93.10
8105;DHT22;4095;48.942;9.104;2023-04-06T03:18:25;3.80;93.30
8105;DHT22;4095;48.942;9.104;2023-04-06T03:20:51;3.70;93.40
8105;DHT22;4095;48.942;9.104;2023-04-06T03:23:19;3.80;93.60
8105;DHT22;4095;48.942;9.104;2023-04-06T03:25:46;3.80;93.60
8105;DHT22;4095;48.942;9.104;2023-04-06T03:28:12;3.80;93.60
8105;DHT22;4095;48.942;9.104;2023-04-06T03:30:37;3.80;93.80
8105;DHT22;4095;48.942;9.104;2023-04-06T03:33:03;3.70;93.60
8105;DHT22;4095;48.942;9.104;2023-04-06T03:35:28;3.70;93.80
8105;DHT22;4095;48.942;9.104;2023-04-06T03:37:54;3.60;93.50
8105;DHT22;4095;48.942;9.104;2023-04-06T03:40:20;3.60;93.80
8105;DHT22;4095;48.942;9.104;2023-04-06T03:42:46;3.60;93.80
8105;DHT22;4095;48.942;9.104;2023-04-06T03:45:11;3.60;94.00
8105;DHT22;4095;48.942;9.104;2023-04-06T03:47:39;3.60;93.80
8105;DHT22;4095;48.942;9.104;2023-04-06T03:50:05;3.50;93.60
8105;DHT22;4095;48.942;9.104;2023-04-06T03:52:31;3.60;93.80
8105;DHT22;4095;48.942;9.104;2023-04-06T03:54:57;3.50;93.50
8105;DHT22;4095;48.942;9.104;2023-04-06T03:57:22;3.30;93.60
8105;DHT22;4095;48.942;9.104;2023-04-06T03:59:48;3.30;93.70
8105;DHT22;4095;48.942;9.104;2023-04-06T04:02:13;3.40;93.60
8105;DHT22;4095;48.942;9.104;2023-04-06T04:04:39;3.40;93.40
8105;DHT22;4095;48.942;9.104;2023-04-06T04:07:04;3.20;93.30
8105;DHT22;4095;48.942;9.104;2023-04-06T04:09:30;3.20;93.40
8105;DHT22;4095;48.942;9.104;2023-04-06T04:11:56;3.20;93.50
8105;DHT22;4095;48.942;9.104;2023-04-06T04:14:21;3.10;93.40
8105;DHT22;4095;48.942;9.104;2023-04-06T04:16:47;3.20;93.30
8105;DHT22;4095;48.942;9.104;2023-04-06T04:19:12;3.10;93.50
8105;DHT22;4095;48.942;9.104;2023-04-06T04:21:45;3.10;93.50
8105;DHT22;4095;48.942;9.104;2023-04-06T04:24:12;3.10;93.50
8105;DHT22;4095;48.942;9.104;2023-04-06T04:26:38;3.10;93.50
8105;DHT22;4095;48.942;9.104;2023-04-06T04:29:04;3.10;93.50
8105;DHT22;4095;48.942;9.104;2023-04-06T04:31:29;3.10;93.50
8105;DHT22;4095;48.942;9.104;2023-04-06T04:33:55;3.10;93.50
8105;DHT22;4095;48.942;9.104;2023-04-06T04:36:21;3.10;93.50
8105;DHT22;4095;48.942;9.104;2023-04-06T04:38:46;3.10;93.70
8105;DHT22;4095;48.942;9.104;2023-04-06T04:41:12;3.10;93.60
8105;DHT22;4095;48.942;9.104;2023-04-06T04:43:37;3.10;93.50
8105;DHT22;4095;48.942;9.104;2023-04-06T04:46:04;3.10;93.60
8105;DHT22;4095;48.942;9.104;2023-04-06T04:48:30;3.10;93.70
8105;DHT22;4095;48.942;9.104;2023-04-06T04:50:55;3.10;93.70
8105;DHT22;4095;48.942;9.104;2023-04-06T04:53:21;3.10;93.60
8105;DHT22;4095;48.942;9.104;2023-04-06T04:55:47;3.10;93.80
8105;DHT22;4095;48.942;9.104;2023-04-06T04:58:12;3.10;93.80
8105;DHT22;4095;48.942;9.104;2023-04-06T05:00:42;3.10;93.80
8105;DHT22;4095;48.942;9.104;2023-04-06T05:03:08;3.10;93.80
8105;DHT22;4095;48.942;9.104;2023-04-06T05:05:35;3.10;93.70
8105;DHT22;4095;48.942;9.104;2023-04-06T05:08:01;3.10;93.70
8105;DHT22;4095;48.942;9.104;2023-04-06T05:10:27;3.10;93.80
8105;DHT22;4095;48.942;9.104;2023-04-06T05:12:52;3.20;94.00
8105;DHT22;4095;48.942;9.104;2023-04-06T05:15:18;3.10;93.80
8105;DHT22;4095;48.942;9.104;2023-04-06T05:17:44;3.20;94.00
8105;DHT22;4095;48.942;9.104;2023-04-06T05:20:10;3.20;94.00
8105;DHT22;4095;48.942;9.104;2023-04-06T05:22:35;3.20;94.00
8105;DHT22;4095;48.942;9.104;2023-04-06T05:25:02;3.20;94.00
8105;DHT22;4095;48.942;9.104;2023-04-06T05:27:28;3.20;94.00
8105;DHT22;4095;48.942;9.104;2023-04-06T05:29:54;3.20;94.10
8105;DHT22;4095;48.942;9.104;2023-04-06T05:32:20;3.20;94.20
8105;DHT22;4095;48.942;9.104;2023-04-06T05:34:48;3.10;94.10
8105;DHT22;4095;48.942;9.104;2023-04-06T05:37:15;3.20;94.20
8105;DHT22;4095;48.942;9.104;2023-04-06T05:39:41;3.10;94.20
8105;DHT22;4095;48.942;9.104;2023-04-06T05:42:06;3.10;94.20
8105;DHT22;4095;48.942;9.104;2023-04-06T05:44:32;3.10;94.30
8105;DHT22;4095;48.942;9.104;2023-04-06T05:46:58;3.10;94.40
8105;DHT22;4095;48.942;9.104;2023-04-06T05:49:23;3.10;94.40
8105;DHT22;4095;48.942;9.104;2023-04-06T05:51:49;3.10;94.30
8105;DHT22;4095;48.942;9.104;2023-04-06T05:54:14;3.10;94.40
8105;DHT22;4095;48.942;9.104;2023-04-06T05:56:40;3.30;94.60
8105;DHT22;4095;48.942;9.104;2023-04-06T05:59:06;3.30;94.40
8105;DHT22;4095;48.942;9.104;2023-04-06T06:01:33;3.40;94.60
8105;DHT22;4095;48.942;9.104;2023-04-06T06:04:00;3.40;94.60
8105;DHT22;4095;48.942;9.104;2023-04-06T06:06:27;3.50;94.70
8105;DHT22;4095;48.942;9.104;2023-04-06T06:08:53;3.60;94.50
8105;DHT22;4095;48.942;9.104;2023-04-06T06:11:18;3.70;94.50
8105;DHT22;4095;48.942;9.104;2023-04-06T06:13:44;3.80;94.60
8105;DHT22;4095;48.942;9.104;2023-04-06T06:16:10;3.90;94.90
8105;DHT22;4095;48.942;9.104;2023-04-06T06:18:35;4.00;94.70
8105;DHT22;4095;48.942;9.104;2023-04-06T06:21:02;4.10;94.40
8105;DHT22;4095;48.942;9.104;2023-04-06T06:23:28;4.20;94.50
8105;DHT22;4095;48.942;9.104;2023-04-06T06:25:53;4.30;94.60
8105;DHT22;4095;48.942;9.104;2023-04-06T06:28:19;4.40;94.40
8105;DHT22;4095;48.942;9.104;2023-04-06T06:30:45;4.50;94.60
8105;DHT22;4095;48.942;9.104;2023-04-06T06:33:10;4.60;94.90
8105;DHT22;4095;48.942;9.104;2023-04-06T06:35:36;4.70;94.70
8105;DHT22;4095;48.942;9.104;2023-04-06T06:38:01;4.70;94.70
8105;DHT22;4095;48.942;9.104;2023-04-06T06:40:27;4.80;94.50
8105;DHT22;4095;48.942;9.104;2023-04-06T06:42:53;4.90;94.60
8105;DHT22;4095;48.942;9.104;2023-04-06T06:45:19;5.00;94.30
8105;DHT22;4095;48.942;9.104;2023-04-06T06:47:45;5.10;94.50
8105;DHT22;4095;48.942;9.104;2023-04-06T06:50:11;5.20;94.50
8105;DHT22;4095;48.942;9.104;2023-04-06T06:52:37;5.30;94.50
8105;DHT22;4095;48.942;9.104;2023-04-06T06:55:02;5.40;94.20
8105;DHT22;4095;48.942;9.104;2023-04-06T06:57:28;5.50;93.90
8105;DHT22;4095;48.942;9.104;2023-04-06T06:59:54;5.60;93.40
8105;DHT22;4095;48.942;9.104;2023-04-06T07:02:19;5.70;93.70
8105;DHT22;4095;48.942;9.104;2023-04-06T07:04:48;5.80;94.00
8105;DHT22;4095;48.942;9.104;2023-04-06T07:07:14;5.90;93.50
8105;DHT22;4095;48.942;9.104;2023-04-06T07:09:39;6.00;93.30
8105;DHT22;4095;48.942;9.104;2023-04-06T07:12:05;6.20;93.50
8105;DHT22;4095;48.942;9.104;2023-04-06T07:14:31;6.30;93.60
8105;DHT22;4095;48.942;9.104;2023-04-06T07:16:57;6.30;92.50
8105;DHT22;4095;48.942;9.104;2023-04-06T07:19:22;6.50;92.70
8105;DHT22;4095;48.942;9.104;2023-04-06T07:21:48;6.60;92.60
8105;DHT22;4095;48.942;9.104;2023-04-06T07:24:15;6.70;92.30
8105;DHT22;4095;48.942;9.104;2023-04-06T07:26:41;6.70;92.00
8105;DHT22;4095;48.942;9.104;2023-04-06T07:29:07;6.90;93.20
8105;DHT22;4095;48.942;9.104;2023-04-06T07:31:32;7.00;93.40
8105;DHT22;4095;48.942;9.104;2023-04-06T07:33:58;7.10;92.90
8105;DHT22;4095;48.942;9.104;2023-04-06T07:36:24;7.30;93.20
8105;DHT22;4095;48.942;9.104;2023-04-06T07:38:50;7.50;92.70
8105;DHT22;4095;48.942;9.104;2023-04-06T07:41:15;7.60;92.10
8105;DHT22;4095;48.942;9.104;2023-04-06T07:43:41;7.80;92.50
8105;DHT22;4095;48.942;9.104;2023-04-06T07:46:06;7.80;91.30
8105;DHT22;4095;48.942;9.104;2023-04-06T07:48:32;8.00;90.90
8105;DHT22;4095;48.942;9.104;2023-04-06T07:51:02;8.10;91.30
8105;DHT22;4095;48.942;9.104;2023-04-06T07:53:28;8.30;91.50
8105;DHT22;4095;48.942;9.104;2023-04-06T07:55:54;8.40;91.60
8105;DHT22;4095;48.942;9.104;2023-04-06T07:58:21;8.60;91.10
8105;DHT22;4095;48.942;9.104;2023-04-06T08:00:46;8.80;90.90
8105;DHT22;4095;48.942;9.104;2023-04-06T08:03:12;8.80;90.30
8105;DHT22;4095;48.942;9.104;2023-04-06T08:05:38;8.90;90.40
8105;DHT22;4095;48.942;9.104;2023-04-06T08:08:03;9.10;90.00
8105;DHT22;4095;48.942;9.104;2023-04-06T08:10:29;9.20;89.90
8105;DHT22;4095;48.942;9.104;2023-04-06T08:12:55;9.30;88.80
8105;DHT22;4095;48.942;9.104;2023-04-06T08:15:20;9.40;87.00
8105;DHT22;4095;48.942;9.104;2023-04-06T08:17:46;9.40;85.20
8105;DHT22;4095;48.942;9.104;2023-04-06T08:20:12;9.50;84.60
8105;DHT22;4095;48.942;9.104;2023-04-06T08:22:37;9.50;84.30
8105;DHT22;4095;48.942;9.104;2023-04-06T08:25:03;9.50;83.90
8105;DHT22;4095;48.942;9.104;2023-04-06T08:27:29;9.60;85.00
8105;DHT22;4095;48.942;9.104;2023-04-06T08:29:54;9.70;83.10
8105;DHT22;4095;48.942;9.104;2023-04-06T08:32:20;9.80;81.80
8105;DHT22;4095;48.942;9.104;2023-04-06T08:34:46;9.90;82.50
8105;DHT22;4095;48.942;9.104;2023-04-06T08:37:12;9.90;81.80
8105;DHT22;4095;48.942;9.104;2023-04-06T08:39:38;10.10;83.00
8105;DHT22;4095;48.942;9.104;2023-04-06T08:42:03;10.30;82.50
8105;DHT22;4095;48.942;9.104;2023-04-06T08:44:29;10.50;82.10
8105;DHT22;4095;48.942;9.104;2023-04-06T08:46:57;10.60;81.00
8105;DHT22;4095;48.942;9.104;2023-04-06T08:49:24;10.70;79.90
8105;DHT22;4095;48.942;9.104;2023-04-06T08:51:50;10.90;82.00
8105;DHT22;4095;48.942;9.104;2023-04-06T08:54:16;11.10;82.10
8105;DHT22;4095;48.942;9.104;2023-04-06T08:56:42;11.20;80.00
8105;DHT22;4095;48.942;9.104;2023-04-06T08:59:09;11.40;81.10
8105;DHT22;4095;48.942;9.104;2023-04-06T09:01:39;11.60;81.50
8105;DHT22;4095;48.942;9.104;2023-04-06T09:04:07;11.70;80.90
8105;DHT22;4095;48.942;9.104;2023-04-06T09:06:36;11.80;76.30
8105;DHT22;4095;48.942;9.104;2023-04-06T09:09:02;11.90;80.00
8105;DHT22;4095;48.942;9.104;2023-04-06T09:11:28;12.10;80.50
8105;DHT22;4095;48.942;9.104;2023-04-06T09:13:54;12.30;77.70
8105;DHT22;4095;48.942;9.104;2023-04-06T09:16:21;12.40;77.40
8105;DHT22;4095;48.942;9.104;2023-04-06T09:18:48;12.60;77.00
8105;DHT22;4095;48.942;9.104;2023-04-06T09:21:17;12.70;76.30
8105;DHT22;4095;48.942;9.104;2023-04-06T09:23:43;12.80;75.80
8105;DHT22;4095;48.942;9.104;2023-04-06T09:26:11;13.00;74.30
8105;DHT22;4095;48.942;9.104;2023-04-06T09:28:54;13.10;73.70
8105;DHT22;4095;48.942;9.104;2023-04-06T09:31:24;13.10;69.90
8105;DHT22;4095;48.942;9.104;2023-04-06T09:33:50;13.20;72.90
8105;DHT22;4095;48.942;9.104;2023-04-06T09:36:17;13.30;70.90
8105;DHT22;4095;48.942;9.104;2023-04-06T09:38:57;13.40;70.30
8105;DHT22;4095;48.942;9.104;2023-04-06T09:41:31;13.50;71.80
8105;DHT22;4095;48.942;9.104;2023-04-06T09:44:07;13.60;71.80
8105;DHT22;4095;48.942;9.104;2023-04-06T09:49:05;14.00;66.80
8105;DHT22;4095;48.942;9.104;2023-04-06T09:51:49;13.90;62.60
8105;DHT22;4095;48.942;9.104;2023-04-06T09:54:21;13.90;64.50
8105;DHT22;4095;48.942;9.104;2023-04-06T10:02:10;14.60;65.00
8105;DHT22;4095;48.942;9.104;2023-04-06T10:04:48;15.00;63.20
8105;DHT22;4095;48.942;9.104;2023-04-06T10:07:15;15.30;62.90
8105;DHT22;4095;48.942;9.104;2023-04-06T10:09:44;15.60;62.90
8105;DHT22;4095;48.942;9.104;2023-04-06T10:12:11;15.90;59.30
8105;DHT22;4095;48.942;9.104;2023-04-06T10:14:38;16.10;59.60
8105;DHT22;4095;48.942;9.104;2023-04-06T10:17:04;16.40;59.90
8105;DHT22;4095;48.942;9.104;2023-04-06T10:19:55;16.80;59.00
8105;DHT22;4095;48.942;9.104;2023-04-06T10:22:29;17.20;59.50
8105;DHT22;4095;48.942;9.104;2023-04-06T10:24:58;17.50;56.60
8105;DHT22;4095;48.942;9.104;2023-04-06T10:27:30;18.00;55.70
8105;DHT22;4095;48.942;9.104;2023-04-06T10:30:04;18.90;58.40
8105;DHT22;4095;48.942;9.104;2023-04-06T10:35:11;20.50;50.60
8105;DHT22;4095;48.942;9.104;2023-04-06T10:38:01;21.30;49.90
8105;DHT22;4095;48.942;9.104;2023-04-06T10:40:28;21.80;47.70
8105;DHT22;4095;48.942;9.104;2023-04-06T10:42:54;22.50;46.50
8105;DHT22;4095;48.942;9.104;2023-04-06T10:45:25;23.20;48.30
8105;DHT22;4095;48.942;9.104;2023-04-06T10:47:55;23.90;46.80
8105;DHT22;4095;48.942;9.104;2023-04-06T10:50:21;24.50;46.40
8105;DHT22;4095;48.942;9.104;2023-04-06T10:52:47;24.90;45.10
8105;DHT22;4095;48.942;9.104;2023-04-06T10:55:23;25.40;47.60
8105;DHT22;4095;48.942;9.104;2023-04-06T10:57:49;25.90;44.00
8105;DHT22;4095;48.942;9.104;2023-04-06T11:00:15;26.30;43.60
8105;DHT22;4095;48.942;9.104;2023-04-06T11:02:41;26.50;43.60
8105;DHT22;4095;48.942;9.104;2023-04-06T11:05:07;26.70;39.70
8105;DHT22;4095;48.942;9.104;2023-04-06T11:07:33;26.70;39.30
8105;DHT22;4095;48.942;9.104;2023-04-06T11:09:58;26.80;41.10
8105;DHT22;4095;48.942;9.104;2023-04-06T11:12:25;27.20;39.00
8105;DHT22;4095;48.942;9.104;2023-04-06T11:14:59;27.20;38.30
8105;DHT22;4095;48.942;9.104;2023-04-06T11:17:32;27.40;39.70
8105;DHT22;4095;48.942;9.104;2023-04-06T11:19:58;27.80;38.20
8105;DHT22;4095;48.942;9.104;2023-04-06T11:22:25;27.90;35.70
8105;DHT22;4095;48.942;9.104;2023-04-06T11:24:51;27.60;36.50
8105;DHT22;4095;48.942;9.104;2023-04-06T11:27:21;27.60;38.00
8105;DHT22;4095;48.942;9.104;2023-04-06T11:29:46;27.80;39.70
8105;DHT22;4095;48.942;9.104;2023-04-06T11:32:22;28.70;37.90
8105;DHT22;4095;48.942;9.104;2023-04-06T11:34:49;29.50;37.70
8105;DHT22;4095;48.942;9.104;2023-04-06T11:37:15;30.00;36.00
8105;DHT22;4095;48.942;9.104;2023-04-06T11:39:47;30.70;38.10
8105;DHT22;4095;48.942;9.104;2023-04-06T11:42:21;31.00;38.30
8105;DHT22;4095;48.942;9.104;2023-04-06T11:44:50;31.00;37.40
8105;DHT22;4095;48.942;9.104;2023-04-06T11:47:16;30.70;36.20
8105;DHT22;4095;48.942;9.104;2023-04-06T11:49:43;30.30;34.90
8105;DHT22;4095;48.942;9.104;2023-04-06T11:52:22;30.20;35.10
8105;DHT22;4095;48.942;9.104;2023-04-06T11:54:49;30.00;36.30
8105;DHT22;4095;48.942;9.104;2023-04-06T11:57:16;29.70;35.50
8105;DHT22;4095;48.942;9.104;2023-04-06T11:59:43;29.50;34.90
8105;DHT22;4095;48.942;9.104;2023-04-06T12:02:09;29.50;32.10
8105;DHT22;4095;48.942;9.104;2023-04-06T12:04:34;29.60;36.70
8105;DHT22;4095;48.942;9.104;2023-04-06T12:07:01;29.70;35.90
8105;DHT22;4095;48.942;9.104;2023-04-06T12:09:27;29.70;36.30
8105;DHT22;4095;48.942;9.104;2023-04-06T12:11:53;29.70;33.60
8105;DHT22;4095;48.942;9.104;2023-04-06T12:14:19;29.40;34.10
8105;DHT22;4095;48.942;9.104;2023-04-06T12:16:45;29.10;32.90
8105;DHT22;4095;48.942;9.104;2023-04-06T12:19:11;28.40;35.20
8105;DHT22;4095;48.942;9.104;2023-04-06T12:21:36;27.90;32.90
8105;DHT22;4095;48.942;9.104;2023-04-06T12:24:03;27.60;35.00
8105;DHT22;4095;48.942;9.104;2023-04-06T12:26:29;27.80;37.40
8105;DHT22;4095;48.942;9.104;2023-04-06T12:28:55;27.80;33.90
8105;DHT22;4095;48.942;9.104;2023-04-06T12:31:22;28.00;35.90
8105;DHT22;4095;48.942;9.104;2023-04-06T12:33:52;28.00;35.50
8105;DHT22;4095;48.942;9.104;2023-04-06T12:36:19;28.00;35.40
8105;DHT22;4095;48.942;9.104;2023-04-06T12:38:47;27.90;33.50
8105;DHT22;4095;48.942;9.104;2023-04-06T12:41:13;28.00;34.20
8105;DHT22;4095;48.942;9.104;2023-04-06T12:43:41;28.10;33.00
8105;DHT22;4095;48.942;9.104;2023-04-06T12:46:06;27.90;32.30
8105;DHT22;4095;48.942;9.104;2023-04-06T12:48:32;27.60;32.40
8105;DHT22;4095;48.942;9.104;2023-04-06T12:50:59;27.50;36.20
8105;DHT22;4095;48.942;9.104;2023-04-06T12:53:25;27.20;34.60
8105;DHT22;4095;48.942;9.104;2023-04-06T12:55:51;26.40;33.20
8105;DHT22;4095;48.942;9.104;2023-04-06T12:58:17;25.70;35.50
8105;DHT22;4095;48.942;9.104;2023-04-06T13:00:43;25.00;36.90
8105;DHT22;4095;48.942;9.104;2023-04-06T13:03:09;24.70;35.90
8105;DHT22;4095;48.942;9.104;2023-04-06T13:05:34;24.50;36.00
8105;DHT22;4095;48.942;9.104;2023-04-06T13:08:00;24.30;38.60
8105;DHT22;4095;48.942;9.104;2023-04-06T13:10:26;24.10;37.60
8105;DHT22;4095;48.942;9.104;2023-04-06T13:12:52;23.90;35.70
8105;DHT22;4095;48.942;9.104;2023-04-06T13:15:17;23.70;37.60
8105;DHT22;4095;48.942;9.104;2023-04-06T13:17:43;23.40;36.30
8105;DHT22;4095;48.942;9.104;2023-04-06T13:20:09;23.30;37.70
8105;DHT22;4095;48.942;9.104;2023-04-06T13:22:35;23.00;39.60
8105;DHT22;4095;48.942;9.104;2023-04-06T13:25:01;23.00;39.60
8105;DHT22;4095;48.942;9.104;2023-04-06T13:27:26;22.90;40.10
8105;DHT22;4095;48.942;9.104;2023-04-06T13:29:53;23.00;41.10
8105;DHT22;4095;48.942;9.104;2023-04-06T13:32:19;22.90;40.30
8105;DHT22;4095;48.942;9.104;2023-04-06T13:34:44;22.70;37.60
8105;DHT22;4095;48.942;9.104;2023-04-06T13:37:14;22.40;38.80
8105;DHT22;4095;48.942;9.104;2023-04-06T13:39:40;21.90;39.70
8105;DHT22;4095;48.942;9.104;2023-04-06T13:42:06;21.60;38.70
8105;DHT22;4095;48.942;9.104;2023-04-06T13:44:32;21.10;39.00
8105;DHT22;4095;48.942;9.104;2023-04-06T13:46:58;20.50;38.80
8105;DHT22;4095;48.942;9.104;2023-04-06T13:49:23;19.80;39.70
8105;DHT22;4095;48.942;9.104;2023-04-06T13:51:49;19.50;39.90
8105;DHT22;4095;48.942;9.104;2023-04-06T13:54:14;19.20;42.30
8105;DHT22;4095;48.942;9.104;2023-04-06T13:56:40;19.20;42.40
8105;DHT22;4095;48.942;9.104;2023-04-06T13:59:06;19.20;42.10
8105;DHT22;4095;48.942;9.104;2023-04-06T14:01:31;19.00;40.50
8105;DHT22;4095;48.942;9.104;2023-04-06T14:03:57;19.20;41.20
8105;DHT22;4095;48.942;9.104;2023-04-06T14:06:22;19.40;40.60
8105;DHT22;4095;48.942;9.104;2023-04-06T14:08:48;19.60;39.90
8105;DHT22;4095;48.942;9.104;2023-04-06T14:11:14;19.80;38.70
8105;DHT22;4095;48.942;9.104;2023-04-06T14:13:40;20.10;42.10
8105;DHT22;4095;48.942;9.104;2023-04-06T14:16:06;20.20;39.60
8105;DHT22;4095;48.942;9.104;2023-04-06T14:18:32;20.10;39.40
8105;DHT22;4095;48.942;9.104;2023-04-06T14:20:59;19.80;40.50
8105;DHT22;4095;48.942;9.104;2023-04-06T14:23:29;19.90;43.20
8105;DHT22;4095;48.942;9.104;2023-04-06T14:26:05;20.00;40.30
8105;DHT22;4095;48.942;9.104;2023-04-06T14:28:33;20.10;43.40
8105;DHT22;4095;48.942;9.104;2023-04-06T14:31:00;20.10;41.30
8105;DHT22;4095;48.942;9.104;2023-04-06T14:33:26;20.40;41.50
8105;DHT22;4095;48.942;9.104;2023-04-06T14:35:52;20.50;43.80
8105;DHT22;4095;48.942;9.104;2023-04-06T14:38:18;20.50;42.50
8105;DHT22;4095;48.942;9.104;2023-04-06T14:40:44;20.50;42.50
8105;DHT22;4095;48.942;9.104;2023-04-06T14:43:09;20.30;41.10
8105;DHT22;4095;48.942;9.104;2023-04-06T14:45:35;20.00;42.00
8105;DHT22;4095;48.942;9.104;2023-04-06T14:48:02;19.80;41.40
8105;DHT22;4095;48.942;9.104;2023-04-06T14:50:28;19.60;41.60
8105;DHT22;4095;48.942;9.104;2023-04-06T14:52:53;19.40;43.90
8105;DHT22;4095;48.942;9.104;2023-04-06T14:55:19;19.30;46.10
8105;DHT22;4095;48.942;9.104;2023-04-06T14:57:45;19.10;43.20
8105;DHT22;4095;48.942;9.104;2023-04-06T15:00:11;19.00;44.10
8105;DHT22;4095;48.942;9.104;2023-04-06T15:02:37;19.00;45.80
8105;DHT22;4095;48.942;9.104;2023-04-06T15:05:03;18.80;42.70
8105;DHT22;4095;48.942;9.104;2023-04-06T15:07:30;18.80;43.00
8105;DHT22;4095;48.942;9.104;2023-04-06T15:09:56;18.60;44.60
8105;DHT22;4095;48.942;9.104;2023-04-06T15:12:21;18.40;42.00
8105;DHT22;4095;48.942;9.104;2023-04-06T15:14:47;18.30;42.40
8105;DHT22;4095;48.942;9.104;2023-04-06T15:17:12;18.20;42.80
8105;DHT22;4095;48.942;9.104;2023-04-06T15:19:38;18.00;44.00
8105;DHT22;4095;48.942;9.104;2023-04-06T15:22:03;17.90;44.20
8105;DHT22;4095;48.942;9.104;2023-04-06T15:24:29;17.80;44.50
8105;DHT22;4095;48.942;9.104;2023-04-06T15:26:55;17.70;43.60
8105;DHT22;4095;48.942;9.104;2023-04-06T15:29:22;17.70;44.80
8105;DHT22;4095;48.942;9.104;2023-04-06T15:31:47;17.70;44.40
8105;DHT22;4095;48.942;9.104;2023-04-06T15:34:13;17.60;44.10
8105;DHT22;4095;48.942;9.104;2023-04-06T15:36:39;17.50;43.80
8105;DHT22;4095;48.942;9.104;2023-04-06T15:39:06;17.40;44.90
8105;DHT22;4095;48.942;9.104;2023-04-06T15:41:34;17.30;45.80
8105;DHT22;4095;48.942;9.104;2023-04-06T15:43:59;17.30;45.20
8105;DHT22;4095;48.942;9.104;2023-04-06T15:46:25;17.30;44.90
8105;DHT22;4095;48.942;9.104;2023-04-06T15:48:52;17.20;45.90
8105;DHT22;4095;48.942;9.104;2023-04-06T15:51:17;17.20;45.70
8105;DHT22;4095;48.942;9.104;2023-04-06T15:53:44;17.10;48.50
8105;DHT22;4095;48.942;9.104;2023-04-06T15:56:09;17.00;48.40
8105;DHT22;4095;48.942;9.104;2023-04-06T15:58:35;16.90;47.00
8105;DHT22;4095;48.942;9.104;2023-04-06T16:01:10;16.90;47.70
8105;DHT22;4095;48.942;9.104;2023-04-06T16:03:36;16.70;48.00
8105;DHT22;4095;48.942;9.104;2023-04-06T16:06:02;16.70;47.60
8105;DHT22;4095;48.942;9.104;2023-04-06T16:08:27;16.60;49.70
8105;DHT22;4095;48.942;9.104;2023-04-06T16:10:53;16.60;50.40
8105;DHT22;4095;48.942;9.104;2023-04-06T16:13:19;16.60;50.40
8105;DHT22;4095;48.942;9.104;2023-04-06T16:15:49;16.50;50.30